sensor_id;sensor_type;location;lat;lon;timestamp;P1;durP1;ratioP1;P2;durP2;ratioP2
15049;SDS011;7622;42.724;23.250;2022-07-19T00:01:47;5.07;;;4.00;;
15049;SDS011;7622;42.724;23.250;2022-07-19T00:04:15;4.80;;;4.13;;
15049;SDS011;7622;42.724;23.250;2022-07-19T00:06:42;4.93;;;3.47;;
15049;SDS011;7622;42.724;23.250;2022-07-19T00:09:09;4.97;;;3.50;;
15049;SDS011;7622;42.724;23.250;2022-07-19T00:11:35;3.93;;;3.40;;
15049;SDS011;7622;42.724;23.250;2022-07-19T00:14:02;4.37;;;3.17;;
15049;SDS011;7622;42.724;23.250;2022-07-19T00:16:29;6.63;;;2.93;;
15049;SDS011;7622;42.724;23.250;2022-07-19T00:18:56;3.10;;;2.90;;
15049;SDS011;7622;42.724;23.250;2022-07-19T00:21:24;5.27;;;3.10;;
15049;SDS011;7622;42.724;23.250;2022-07-19T00:23:50;4.20;;;3.07;;
15049;SDS011;7622;42.724;23.250;2022-07-19T00:26:17;4.20;;;2.63;;
15049;SDS011;7622;42.724;23.250;2022-07-19T00:28:44;4.00;;;2.90;;
15049;SDS011;7622;42.724;23.250;2022-07-19T00:31:11;2.97;;;2.77;;
15049;SDS011;7622;42.724;23.250;2022-07-19T00:33:38;2.90;;;2.70;;
15049;SDS011;7622;42.724;23.250;2022-07-19T00:36:04;3.07;;;2.63;;
15049;SDS011;7622;42.724;23.250;2022-07-19T00:38:33;4.13;;;2.70;;
15049;SDS011;7622;42.724;23.250;2022-07-19T00:41:00;6.13;;;3.20;;
15049;SDS011;7622;42.724;23.250;2022-07-19T00:43:27;3.60;;;3.17;;
15049;SDS011;7622;42.724;23.250;2022-07-19T00:45:54;3.00;;;2.80;;
15049;SDS011;7622;42.724;23.250;2022-07-19T00:48:21;2.87;;;2.63;;
15049;SDS011;7622;42.724;23.250;2022-07-19T00:50:48;4.27;;;2.63;;
15049;SDS011;7622;42.724;23.250;2022-07-19T00:53:15;3.80;;;2.87;;
15049;SDS011;7622;42.724;23.250;2022-07-19T00:55:43;2.83;;;2.57;;
15049;SDS011;7622;42.724;23.250;2022-07-19T00:58:11;2.90;;;2.70;;
15049;SDS011;7622;42.724;23.250;2022-07-19T01:00:39;5.63;;;2.80;;
15049;SDS011;7622;42.724;23.250;2022-07-19T01:03:07;8.13;;;2.60;;
15049;SDS011;7622;42.724;23.250;2022-07-19T01:05:34;5.37;;;2.97;;
15049;SDS011;7622;42.724;23.250;2022-07-19T01:08:02;7.07;;;3.30;;
15049;SDS011;7622;42.724;23.250;2022-07-19T01:10:34;4.07;;;2.40;;
15049;SDS011;7622;42.724;23.250;2022-07-19T01:13:04;2.97;;;2.73;;
15049;SDS011;7622;42.724;23.250;2022-07-19T01:15:32;4.67;;;2.60;;
15049;SDS011;7622;42.724;23.250;2022-07-19T01:17:58;2.83;;;2.33;;
15049;SDS011;7622;42.724;23.250;2022-07-19T01:20:25;3.50;;;2.77;;
15049;SDS011;7622;42.724;23.250;2022-07-19T01:22:53;2.40;;;2.20;;
15049;SDS011;7622;42.724;23.250;2022-07-19T01:25:21;4.70;;;2.47;;
15049;SDS011;7622;42.724;23.250;2022-07-19T01:27:49;4.73;;;2.97;;
15049;SDS011;7622;42.724;23.250;2022-07-19T01:30:16;2.60;;;2.17;;
15049;SDS011;7622;42.724;23.250;2022-07-19T01:32:47;2.97;;;2.23;;
15049;SDS011;7622;42.724;23.250;2022-07-19T01:35:17;2.70;;;2.53;;
15049;SDS011;7622;42.724;23.250;2022-07-19T01:37:44;2.40;;;2.30;;
15049;SDS011;7622;42.724;23.250;2022-07-19T01:40:14;2.70;;;2.30;;
15049;SDS011;7622;42.724;23.250;2022-07-19T01:42:42;3.77;;;2.20;;
15049;SDS011;7622;42.724;23.250;2022-07-19T01:45:09;3.97;;;2.37;;
15049;SDS011;7622;42.724;23.250;2022-07-19T01:47:37;2.60;;;2.27;;
15049;SDS011;7622;42.724;23.250;2022-07-19T01:50:06;4.63;;;2.53;;
15049;SDS011;7622;42.724;23.250;2022-07-19T01:52:35;3.77;;;2.40;;
15049;SDS011;7622;42.724;23.250;2022-07-19T01:55:01;3.93;;;2.43;;
15049;SDS011;7622;42.724;23.250;2022-07-19T01:57:30;4.37;;;2.90;;
15049;SDS011;7622;42.724;23.250;2022-07-19T01:59:57;4.53;;;3.00;;
15049;SDS011;7622;42.724;23.250;2022-07-19T02:02:24;3.83;;;2.40;;
15049;SDS011;7622;42.724;23.250;2022-07-19T02:04:51;3.07;;;2.63;;
15049;SDS011;7622;42.724;23.250;2022-07-19T02:07:17;3.10;;;2.80;;
15049;SDS011;7622;42.724;23.250;2022-07-19T02:09:44;4.93;;;2.30;;
15049;SDS011;7622;42.724;23.250;2022-07-19T02:12:11;2.63;;;2.27;;
15049;SDS011;7622;42.724;23.250;2022-07-19T02:14:39;4.80;;;2.37;;
15049;SDS011;7622;42.724;23.250;2022-07-19T02:17:06;7.97;;;2.77;;
15049;SDS011;7622;42.724;23.250;2022-07-19T02:19:33;2.73;;;2.50;;
15049;SDS011;7622;42.724;23.250;2022-07-19T02:21:59;2.50;;;2.30;;
15049;SDS011;7622;42.724;23.250;2022-07-19T02:24:26;5.73;;;2.87;;
15049;SDS011;7622;42.724;23.250;2022-07-19T02:26:53;3.80;;;2.40;;
15049;SDS011;7622;42.724;23.250;2022-07-19T02:29:19;2.77;;;2.60;;
15049;SDS011;7622;42.724;23.250;2022-07-19T02:31:48;2.67;;;2.47;;
15049;SDS011;7622;42.724;23.250;2022-07-19T02:34:14;2.83;;;2.63;;
15049;SDS011;7622;42.724;23.250;2022-07-19T02:36:41;3.37;;;2.77;;
15049;SDS011;7622;42.724;23.250;2022-07-19T02:39:09;3.40;;;3.10;;
15049;SDS011;7622;42.724;23.250;2022-07-19T02:41:35;3.57;;;2.90;;
15049;SDS011;7622;42.724;23.250;2022-07-19T02:44:02;3.20;;;2.37;;
15049;SDS011;7622;42.724;23.250;2022-07-19T02:46:29;2.60;;;2.40;;
15049;SDS011;7622;42.724;23.250;2022-07-19T02:48:57;3.30;;;2.60;;
15049;SDS011;7622;42.724;23.250;2022-07-19T02:51:24;2.80;;;2.60;;
15049;SDS011;7622;42.724;23.250;2022-07-19T02:53:51;4.13;;;2.30;;
15049;SDS011;7622;42.724;23.250;2022-07-19T02:56:18;4.13;;;2.10;;
15049;SDS011;7622;42.724;23.250;2022-07-19T02:58:44;2.30;;;2.10;;
15049;SDS011;7622;42.724;23.250;2022-07-19T03:01:11;5.27;;;2.57;;
15049;SDS011;7622;42.724;23.250;2022-07-19T03:03:38;3.00;;;2.70;;
15049;SDS011;7622;42.724;23.250;2022-07-19T03:06:14;2.47;;;2.37;;
15049;SDS011;7622;42.724;23.250;2022-07-19T03:08:41;4.37;;;2.70;;
15049;SDS011;7622;42.724;23.250;2022-07-19T03:11:08;3.67;;;3.47;;
15049;SDS011;7622;42.724;23.250;2022-07-19T03:13:35;5.63;;;3.50;;
15049;SDS011;7622;42.724;23.250;2022-07-19T03:16:04;4.70;;;4.30;;
15049;SDS011;7622;42.724;23.250;2022-07-19T03:18:34;5.43;;;2.97;;
15049;SDS011;7622;42.724;23.250;2022-07-19T03:21:01;5.23;;;3.27;;
15049;SDS011;7622;42.724;23.250;2022-07-19T03:23:30;6.23;;;3.63;;
15049;SDS011;7622;42.724;23.250;2022-07-19T03:25:57;4.13;;;3.67;;
15049;SDS011;7622;42.724;23.250;2022-07-19T03:28:24;7.27;;;3.30;;
15049;SDS011;7622;42.724;23.250;2022-07-19T03:30:51;6.70;;;3.67;;
15049;SDS011;7622;42.724;23.250;2022-07-19T03:33:18;4.80;;;3.60;;
15049;SDS011;7622;42.724;23.250;2022-07-19T03:35:45;3.93;;;3.63;;
15049;SDS011;7622;42.724;23.250;2022-07-19T03:38:12;4.33;;;3.37;;
15049;SDS011;7622;42.724;23.250;2022-07-19T03:40:42;4.30;;;3.90;;
15049;SDS011;7622;42.724;23.250;2022-07-19T03:43:08;6.80;;;3.70;;
15049;SDS011;7622;42.724;23.250;2022-07-19T03:45:35;7.63;;;4.60;;
15049;SDS011;7622;42.724;23.250;2022-07-19T03:48:02;4.87;;;3.80;;
15049;SDS011;7622;42.724;23.250;2022-07-19T03:50:29;7.97;;;4.40;;
15049;SDS011;7622;42.724;23.250;2022-07-19T03:52:56;4.90;;;3.63;;
15049;SDS011;7622;42.724;23.250;2022-07-19T03:55:23;6.00;;;3.90;;
15049;SDS011;7622;42.724;23.250;2022-07-19T03:57:51;4.40;;;4.00;;
15049;SDS011;7622;42.724;23.250;2022-07-19T04:00:18;9.07;;;5.10;;
15049;SDS011;7622;42.724;23.250;2022-07-19T04:02:45;32.43;;;5.47;;
15049;SDS011;7622;42.724;23.250;2022-07-19T04:05:11;9.93;;;4.10;;
15049;SDS011;7622;42.724;23.250;2022-07-19T04:07:38;8.77;;;4.60;;
15049;SDS011;7622;42.724;23.250;2022-07-19T04:10:05;5.73;;;3.97;;
15049;SDS011;7622;42.724;23.250;2022-07-19T04:12:34;6.60;;;4.60;;
15049;SDS011;7622;42.724;23.250;2022-07-19T04:15:03;4.97;;;3.90;;
15049;SDS011;7622;42.724;23.250;2022-07-19T04:17:30;5.67;;;4.10;;
15049;SDS011;7622;42.724;23.250;2022-07-19T04:19:56;7.43;;;4.10;;
15049;SDS011;7622;42.724;23.250;2022-07-19T04:22:23;6.40;;;4.13;;
15049;SDS011;7622;42.724;23.250;2022-07-19T04:24:50;6.63;;;3.80;;
15049;SDS011;7622;42.724;23.250;2022-07-19T04:27:17;10.93;;;4.37;;
15049;SDS011;7622;42.724;23.250;2022-07-19T04:29:44;5.77;;;4.10;;
15049;SDS011;7622;42.724;23.250;2022-07-19T04:32:12;5.17;;;4.33;;
15049;SDS011;7622;42.724;23.250;2022-07-19T04:34:39;5.53;;;4.40;;
15049;SDS011;7622;42.724;23.250;2022-07-19T04:37:06;5.57;;;4.33;;
15049;SDS011;7622;42.724;23.250;2022-07-19T04:39:32;7.60;;;3.97;;
15049;SDS011;7622;42.724;23.250;2022-07-19T04:41:59;8.77;;;4.63;;
15049;SDS011;7622;42.724;23.250;2022-07-19T04:44:26;5.77;;;4.20;;
15049;SDS011;7622;42.724;23.250;2022-07-19T04:46:53;14.67;;;4.30;;
15049;SDS011;7622;42.724;23.250;2022-07-19T04:49:21;8.47;;;4.33;;
15049;SDS011;7622;42.724;23.250;2022-07-19T04:51:47;11.57;;;4.30;;
15049;SDS011;7622;42.724;23.250;2022-07-19T04:54:14;7.73;;;4.10;;
15049;SDS011;7622;42.724;23.250;2022-07-19T04:56:44;7.53;;;4.40;;
15049;SDS011;7622;42.724;23.250;2022-07-19T04:59:13;9.53;;;4.13;;
15049;SDS011;7622;42.724;23.250;2022-07-19T05:01:40;4.47;;;4.13;;
15049;SDS011;7622;42.724;23.250;2022-07-19T05:04:07;10.83;;;3.93;;
15049;SDS011;7622;42.724;23.250;2022-07-19T05:06:35;8.27;;;4.10;;
15049;SDS011;7622;42.724;23.250;2022-07-19T05:09:02;6.33;;;4.33;;
15049;SDS011;7622;42.724;23.250;2022-07-19T05:11:29;10.67;;;3.90;;
15049;SDS011;7622;42.724;23.250;2022-07-19T05:13:59;7.77;;;4.10;;
15049;SDS011;7622;42.724;23.250;2022-07-19T05:16:27;4.03;;;3.63;;
15049;SDS011;7622;42.724;23.250;2022-07-19T05:18:54;8.07;;;4.20;;
15049;SDS011;7622;42.724;23.250;2022-07-19T05:21:20;4.13;;;3.33;;
15049;SDS011;7622;42.724;23.250;2022-07-19T05:23:48;5.03;;;3.70;;
15049;SDS011;7622;42.724;23.250;2022-07-19T05:26:15;16.03;;;3.80;;
15049;SDS011;7622;42.724;23.250;2022-07-19T05:28:42;5.83;;;4.20;;
15049;SDS011;7622;42.724;23.250;2022-07-19T05:31:09;5.53;;;3.63;;
15049;SDS011;7622;42.724;23.250;2022-07-19T05:33:35;7.10;;;3.73;;
15049;SDS011;7622;42.724;23.250;2022-07-19T05:36:02;5.40;;;3.23;;
15049;SDS011;7622;42.724;23.250;2022-07-19T05:38:29;6.30;;;3.37;;
15049;SDS011;7622;42.724;23.250;2022-07-19T05:41:00;9.33;;;4.60;;
15049;SDS011;7622;42.724;23.250;2022-07-19T05:43:27;9.90;;;3.90;;
15049;SDS011;7622;42.724;23.250;2022-07-19T05:45:54;7.63;;;3.60;;
15049;SDS011;7622;42.724;23.250;2022-07-19T05:48:21;6.13;;;3.00;;
15049;SDS011;7622;42.724;23.250;2022-07-19T05:50:48;5.27;;;3.10;;
15049;SDS011;7622;42.724;23.250;2022-07-19T05:53:14;9.53;;;3.07;;
15049;SDS011;7622;42.724;23.250;2022-07-19T05:55:42;4.03;;;3.00;;
15049;SDS011;7622;42.724;23.250;2022-07-19T05:58:10;3.07;;;2.80;;
15049;SDS011;7622;42.724;23.250;2022-07-19T06:00:37;3.90;;;2.93;;
15049;SDS011;7622;42.724;23.250;2022-07-19T06:03:24;3.70;;;3.20;;
15049;SDS011;7622;42.724;23.250;2022-07-19T06:05:51;6.93;;;2.67;;
15049;SDS011;7622;42.724;23.250;2022-07-19T06:08:18;6.63;;;2.90;;
15049;SDS011;7622;42.724;23.250;2022-07-19T06:10:44;7.13;;;2.90;;
15049;SDS011;7622;42.724;23.250;2022-07-19T06:13:12;6.57;;;2.90;;
15049;SDS011;7622;42.724;23.250;2022-07-19T06:15:40;6.50;;;3.13;;
15049;SDS011;7622;42.724;23.250;2022-07-19T06:18:06;4.70;;;2.60;;
15049;SDS011;7622;42.724;23.250;2022-07-19T06:20:33;6.97;;;2.83;;
15049;SDS011;7622;42.724;23.250;2022-07-19T06:23:00;4.73;;;2.80;;
15049;SDS011;7622;42.724;23.250;2022-07-19T06:25:27;5.27;;;2.50;;
15049;SDS011;7622;42.724;23.250;2022-07-19T06:27:54;4.00;;;2.07;;
15049;SDS011;7622;42.724;23.250;2022-07-19T06:30:22;5.00;;;2.43;;
15049;SDS011;7622;42.724;23.250;2022-07-19T06:32:48;6.53;;;2.80;;
15049;SDS011;7622;42.724;23.250;2022-07-19T06:35:15;2.00;;;1.80;;
15049;SDS011;7622;42.724;23.250;2022-07-19T06:37:42;3.90;;;3.20;;
15049;SDS011;7622;42.724;23.250;2022-07-19T06:40:09;5.22;;;2.25;;
15049;SDS011;7622;42.724;23.250;2022-07-19T06:42:36;5.90;;;2.42;;
15049;SDS011;7622;42.724;23.250;2022-07-19T06:45:03;3.90;;;2.28;;
15049;SDS011;7622;42.724;23.250;2022-07-19T06:47:32;5.47;;;2.22;;
15049;SDS011;7622;42.724;23.250;2022-07-19T06:49:59;5.82;;;2.03;;
15049;SDS011;7622;42.724;23.250;2022-07-19T06:52:25;6.70;;;2.28;;
15049;SDS011;7622;42.724;23.250;2022-07-19T06:54:52;6.70;;;2.50;;
15049;SDS011;7622;42.724;23.250;2022-07-19T06:57:19;3.53;;;1.92;;
15049;SDS011;7622;42.724;23.250;2022-07-19T06:59:46;5.45;;;2.80;;
15049;SDS011;7622;42.724;23.250;2022-07-19T07:02:12;5.10;;;3.30;;
15049;SDS011;7622;42.724;23.250;2022-07-19T07:04:40;8.05;;;2.22;;
15049;SDS011;7622;42.724;23.250;2022-07-19T07:07:07;3.60;;;2.38;;
15049;SDS011;7622;42.724;23.250;2022-07-19T07:09:34;6.57;;;2.63;;
15049;SDS011;7622;42.724;23.250;2022-07-19T07:12:01;6.28;;;2.30;;
15049;SDS011;7622;42.724;23.250;2022-07-19T07:14:27;7.65;;;2.42;;
15049;SDS011;7622;42.724;23.250;2022-07-19T07:16:54;3.63;;;2.55;;
15049;SDS011;7622;42.724;23.250;2022-07-19T07:19:21;5.40;;;3.13;;
15049;SDS011;7622;42.724;23.250;2022-07-19T07:21:49;8.20;;;2.30;;
15049;SDS011;7622;42.724;23.250;2022-07-19T07:24:16;3.95;;;2.80;;
15049;SDS011;7622;42.724;23.250;2022-07-19T07:26:43;3.00;;;2.15;;
15049;SDS011;7622;42.724;23.250;2022-07-19T07:29:09;2.95;;;2.28;;
15049;SDS011;7622;42.724;23.250;2022-07-19T07:31:36;2.83;;;2.13;;
15049;SDS011;7622;42.724;23.250;2022-07-19T07:34:03;4.10;;;3.80;;
15049;SDS011;7622;42.724;23.250;2022-07-19T07:36:29;3.75;;;2.13;;
15049;SDS011;7622;42.724;23.250;2022-07-19T07:38:58;2.47;;;1.77;;
15049;SDS011;7622;42.724;23.250;2022-07-19T07:41:24;3.83;;;2.45;;
15049;SDS011;7622;42.724;23.250;2022-07-19T07:43:51;4.95;;;2.35;;
15049;SDS011;7622;42.724;23.250;2022-07-19T07:46:18;4.28;;;2.35;;
15049;SDS011;7622;42.724;23.250;2022-07-19T07:48:45;2.60;;;2.40;;
15049;SDS011;7622;42.724;23.250;2022-07-19T07:51:12;5.18;;;2.42;;
15049;SDS011;7622;42.724;23.250;2022-07-19T07:53:39;3.35;;;2.05;;
15049;SDS011;7622;42.724;23.250;2022-07-19T07:56:07;4.22;;;2.50;;
15049;SDS011;7622;42.724;23.250;2022-07-19T07:58:34;4.03;;;2.13;;
15049;SDS011;7622;42.724;23.250;2022-07-19T08:01:00;4.18;;;1.98;;
15049;SDS011;7622;42.724;23.250;2022-07-19T08:03:27;4.72;;;1.75;;
15049;SDS011;7622;42.724;23.250;2022-07-19T08:05:54;4.03;;;1.90;;
15049;SDS011;7622;42.724;23.250;2022-07-19T08:08:22;2.00;;;1.77;;
15049;SDS011;7622;42.724;23.250;2022-07-19T08:10:51;1.95;;;1.85;;
15049;SDS011;7622;42.724;23.250;2022-07-19T08:13:20;4.03;;;2.10;;
15049;SDS011;7622;42.724;23.250;2022-07-19T08:15:47;1.88;;;1.70;;
15049;SDS011;7622;42.724;23.250;2022-07-19T08:18:14;1.63;;;1.52;;
15049;SDS011;7622;42.724;23.250;2022-07-19T08:20:41;2.03;;;1.92;;
15049;SDS011;7622;42.724;23.250;2022-07-19T08:23:08;3.17;;;1.95;;
15049;SDS011;7622;42.724;23.250;2022-07-19T08:25:34;2.85;;;1.63;;
15049;SDS011;7622;42.724;23.250;2022-07-19T08:28:01;3.28;;;1.67;;
15049;SDS011;7622;42.724;23.250;2022-07-19T08:30:30;6.53;;;2.30;;
15049;SDS011;7622;42.724;23.250;2022-07-19T08:32:58;4.10;;;1.90;;
15049;SDS011;7622;42.724;23.250;2022-07-19T08:35:26;2.13;;;1.92;;
15049;SDS011;7622;42.724;23.250;2022-07-19T08:37:52;5.15;;;2.40;;
15049;SDS011;7622;42.724;23.250;2022-07-19T08:40:19;4.68;;;2.50;;
15049;SDS011;7622;42.724;23.250;2022-07-19T08:42:46;2.00;;;1.90;;
15049;SDS011;7622;42.724;23.250;2022-07-19T08:45:14;2.25;;;2.13;;
15049;SDS011;7622;42.724;23.250;2022-07-19T08:47:42;2.20;;;1.83;;
15049;SDS011;7622;42.724;23.250;2022-07-19T08:50:10;1.90;;;1.80;;
15049;SDS011;7622;42.724;23.250;2022-07-19T08:52:38;4.60;;;1.88;;
15049;SDS011;7622;42.724;23.250;2022-07-19T08:55:05;3.17;;;1.80;;
15049;SDS011;7622;42.724;23.250;2022-07-19T08:57:32;2.38;;;2.05;;
15049;SDS011;7622;42.724;23.250;2022-07-19T09:00:16;2.20;;;2.08;;
15049;SDS011;7622;42.724;23.250;2022-07-19T09:02:51;3.50;;;2.33;;
15049;SDS011;7622;42.724;23.250;2022-07-19T09:05:19;5.20;;;2.17;;
15049;SDS011;7622;42.724;23.250;2022-07-19T09:07:58;4.38;;;2.00;;
15049;SDS011;7622;42.724;23.250;2022-07-19T09:10:27;2.53;;;1.70;;
15049;SDS011;7622;42.724;23.250;2022-07-19T09:18:14;7.88;;;2.65;;
15049;SDS011;7622;42.724;23.250;2022-07-19T09:20:46;2.38;;;2.00;;
15049;SDS011;7622;42.724;23.250;2022-07-19T09:23:16;3.05;;;2.10;;
15049;SDS011;7622;42.724;23.250;2022-07-19T09:25:43;3.05;;;2.22;;
15049;SDS011;7622;42.724;23.250;2022-07-19T09:28:14;2.20;;;1.85;;
15049;SDS011;7622;42.724;23.250;2022-07-19T09:30:43;6.55;;;2.33;;
15049;SDS011;7622;42.724;23.250;2022-07-19T09:33:11;3.17;;;2.08;;
15049;SDS011;7622;42.724;23.250;2022-07-19T09:35:42;2.83;;;1.90;;
15049;SDS011;7622;42.724;23.250;2022-07-19T09:38:14;2.08;;;1.90;;
15049;SDS011;7622;42.724;23.250;2022-07-19T09:40:45;2.35;;;2.17;;
15049;SDS011;7622;42.724;23.250;2022-07-19T09:43:12;18.58;;;3.60;;
15049;SDS011;7622;42.724;23.250;2022-07-19T09:45:39;7.60;;;2.33;;
15049;SDS011;7622;42.724;23.250;2022-07-19T09:48:06;2.17;;;1.95;;
15049;SDS011;7622;42.724;23.250;2022-07-19T09:50:34;2.58;;;2.33;;
15049;SDS011;7622;42.724;23.250;2022-07-19T09:53:03;4.50;;;2.20;;
15049;SDS011;7622;42.724;23.250;2022-07-19T09:55:31;1.95;;;1.85;;
15049;SDS011;7622;42.724;23.250;2022-07-19T09:57:59;13.63;;;2.63;;
15049;SDS011;7622;42.724;23.250;2022-07-19T10:00:28;2.47;;;2.28;;
15049;SDS011;7622;42.724;23.250;2022-07-19T10:02:56;1.95;;;1.83;;
15049;SDS011;7622;42.724;23.250;2022-07-19T10:05:24;3.70;;;2.28;;
15049;SDS011;7622;42.724;23.250;2022-07-19T10:07:54;5.25;;;2.22;;
15049;SDS011;7622;42.724;23.250;2022-07-19T10:10:22;3.47;;;1.98;;
15049;SDS011;7622;42.724;23.250;2022-07-19T10:12:50;5.72;;;2.38;;
15049;SDS011;7622;42.724;23.250;2022-07-19T10:15:18;5.70;;;2.28;;
15049;SDS011;7622;42.724;23.250;2022-07-19T10:17:53;2.40;;;2.20;;
15049;SDS011;7622;42.724;23.250;2022-07-19T10:20:27;3.15;;;2.00;;
15049;SDS011;7622;42.724;23.250;2022-07-19T10:22:58;2.58;;;1.92;;
15049;SDS011;7622;42.724;23.250;2022-07-19T10:25:36;2.47;;;2.28;;
15049;SDS011;7622;42.724;23.250;2022-07-19T10:28:05;2.30;;;2.10;;
15049;SDS011;7622;42.724;23.250;2022-07-19T10:30:38;2.33;;;2.22;;
15049;SDS011;7622;42.724;23.250;2022-07-19T10:35:55;3.83;;;2.33;;
15049;SDS011;7622;42.724;23.250;2022-07-19T10:38:23;2.97;;;2.30;;
15049;SDS011;7622;42.724;23.250;2022-07-19T10:40:51;3.55;;;2.25;;
15049;SDS011;7622;42.724;23.250;2022-07-19T10:43:21;3.03;;;2.10;;
15049;SDS011;7622;42.724;23.250;2022-07-19T10:46:07;2.50;;;2.05;;
15049;SDS011;7622;42.724;23.250;2022-07-19T10:48:36;2.47;;;2.13;;
15049;SDS011;7622;42.724;23.250;2022-07-19T10:51:03;2.17;;;1.80;;
15049;SDS011;7622;42.724;23.250;2022-07-19T11:04:56;3.97;;;2.10;;
15049;SDS011;7622;42.724;23.250;2022-07-19T11:07:23;3.92;;;2.20;;
15049;SDS011;7622;42.724;23.250;2022-07-19T11:09:53;6.38;;;2.22;;
15049;SDS011;7622;42.724;23.250;2022-07-19T11:12:28;3.92;;;2.10;;
15049;SDS011;7622;42.724;23.250;2022-07-19T11:15:01;1.70;;;1.60;;
15049;SDS011;7622;42.724;23.250;2022-07-19T11:17:30;3.08;;;2.17;;
15049;SDS011;7622;42.724;23.250;2022-07-19T11:20:00;4.93;;;2.10;;
15049;SDS011;7622;42.724;23.250;2022-07-19T11:22:36;7.65;;;2.50;;
15049;SDS011;7622;42.724;23.250;2022-07-19T11:25:06;3.78;;;2.15;;
15049;SDS011;7622;42.724;23.250;2022-07-19T11:27:35;4.95;;;2.03;;
15049;SDS011;7622;42.724;23.250;2022-07-19T11:30:03;2.90;;;2.08;;
15049;SDS011;7622;42.724;23.250;2022-07-19T11:32:32;6.55;;;2.10;;
15049;SDS011;7622;42.724;23.250;2022-07-19T11:35:00;4.43;;;2.50;;
15049;SDS011;7622;42.724;23.250;2022-07-19T11:37:32;2.70;;;2.47;;
15049;SDS011;7622;42.724;23.250;2022-07-19T11:40:02;2.22;;;1.90;;
15049;SDS011;7622;42.724;23.250;2022-07-19T11:42:32;3.33;;;2.15;;
15049;SDS011;7622;42.724;23.250;2022-07-19T11:45:07;4.75;;;2.20;;
15049;SDS011;7622;42.724;23.250;2022-07-19T11:47:37;4.32;;;2.10;;
15049;SDS011;7622;42.724;23.250;2022-07-19T11:50:10;4.15;;;2.13;;
15049;SDS011;7622;42.724;23.250;2022-07-19T11:52:41;2.67;;;1.88;;
15049;SDS011;7622;42.724;23.250;2022-07-19T11:55:09;3.55;;;1.80;;
15049;SDS011;7622;42.724;23.250;2022-07-19T11:57:37;3.08;;;1.98;;
15049;SDS011;7622;42.724;23.250;2022-07-19T12:00:06;4.43;;;1.90;;
15049;SDS011;7622;42.724;23.250;2022-07-19T12:02:49;4.20;;;2.13;;
15049;SDS011;7622;42.724;23.250;2022-07-19T12:05:21;2.22;;;1.92;;
15049;SDS011;7622;42.724;23.250;2022-07-19T12:07:48;6.10;;;2.40;;
15049;SDS011;7622;42.724;23.250;2022-07-19T12:13:00;2.63;;;2.20;;
15049;SDS011;7622;42.724;23.250;2022-07-19T12:15:40;4.35;;;2.00;;
15049;SDS011;7622;42.724;23.250;2022-07-19T12:18:12;4.20;;;1.90;;
15049;SDS011;7622;42.724;23.250;2022-07-19T12:20:40;2.30;;;1.80;;
15049;SDS011;7622;42.724;23.250;2022-07-19T12:23:12;2.85;;;1.70;;
15049;SDS011;7622;42.724;23.250;2022-07-19T12:25:44;2.17;;;1.40;;
15049;SDS011;7622;42.724;23.250;2022-07-19T12:28:12;1.75;;;1.65;;
15049;SDS011;7622;42.724;23.250;2022-07-19T12:30:39;2.13;;;2.00;;
15049;SDS011;7622;42.724;23.250;2022-07-19T12:33:07;2.17;;;1.88;;
15049;SDS011;7622;42.724;23.250;2022-07-19T12:35:42;1.85;;;1.75;;
15049;SDS011;7622;42.724;23.250;2022-07-19T12:38:10;1.83;;;1.73;;
15049;SDS011;7622;42.724;23.250;2022-07-19T12:40:38;1.95;;;1.85;;
15049;SDS011;7622;42.724;23.250;2022-07-19T12:43:06;3.05;;;2.75;;
15049;SDS011;7622;42.724;23.250;2022-07-19T12:45:39;2.00;;;1.90;;
15049;SDS011;7622;42.724;23.250;2022-07-19T12:48:09;1.85;;;1.75;;
15049;SDS011;7622;42.724;23.250;2022-07-19T12:50:39;2.22;;;1.60;;
15049;SDS011;7622;42.724;23.250;2022-07-19T12:53:08;2.90;;;1.90;;
15049;SDS011;7622;42.724;23.250;2022-07-19T12:55:38;1.83;;;1.73;;
15049;SDS011;7622;42.724;23.250;2022-07-19T12:58:06;4.22;;;2.05;;
15049;SDS011;7622;42.724;23.250;2022-07-19T13:00:34;3.10;;;1.85;;
15049;SDS011;7622;42.724;23.250;2022-07-19T13:03:04;2.15;;;1.92;;
15049;SDS011;7622;42.724;23.250;2022-07-19T13:05:32;2.10;;;1.88;;
15049;SDS011;7622;42.724;23.250;2022-07-19T13:08:00;1.50;;;1.40;;
15049;SDS011;7622;42.724;23.250;2022-07-19T13:10:28;1.80;;;1.70;;
15049;SDS011;7622;42.724;23.250;2022-07-19T13:12:56;3.63;;;1.83;;
15049;SDS011;7622;42.724;23.250;2022-07-19T13:15:22;2.90;;;1.70;;
15049;SDS011;7622;42.724;23.250;2022-07-19T13:17:49;2.15;;;1.48;;
15049;SDS011;7622;42.724;23.250;2022-07-19T13:20:17;2.70;;;2.10;;
15049;SDS011;7622;42.724;23.250;2022-07-19T13:22:44;4.47;;;1.75;;
15049;SDS011;7622;42.724;23.250;2022-07-19T13:25:11;1.80;;;1.70;;
15049;SDS011;7622;42.724;23.250;2022-07-19T13:27:38;1.77;;;1.35;;
15049;SDS011;7622;42.724;23.250;2022-07-19T13:30:05;1.88;;;1.77;;
15049;SDS011;7622;42.724;23.250;2022-07-19T13:32:32;1.83;;;1.73;;
15049;SDS011;7622;42.724;23.250;2022-07-19T13:34:59;3.08;;;2.00;;
15049;SDS011;7622;42.724;23.250;2022-07-19T13:37:27;4.32;;;1.65;;
15049;SDS011;7622;42.724;23.250;2022-07-19T13:39:54;5.47;;;2.38;;
15049;SDS011;7622;42.724;23.250;2022-07-19T13:42:21;2.03;;;1.92;;
15049;SDS011;7622;42.724;23.250;2022-07-19T13:44:48;1.83;;;1.73;;
15049;SDS011;7622;42.724;23.250;2022-07-19T13:47:15;1.70;;;1.60;;
15049;SDS011;7622;42.724;23.250;2022-07-19T13:49:41;4.15;;;1.92;;
15049;SDS011;7622;42.724;23.250;2022-07-19T13:52:08;1.52;;;1.42;;
15049;SDS011;7622;42.724;23.250;2022-07-19T13:54:36;3.03;;;2.13;;
15049;SDS011;7622;42.724;23.250;2022-07-19T13:57:03;2.42;;;1.60;;
15049;SDS011;7622;42.724;23.250;2022-07-19T13:59:30;2.42;;;2.20;;
15049;SDS011;7622;42.724;23.250;2022-07-19T14:01:58;2.15;;;1.70;;
15049;SDS011;7622;42.724;23.250;2022-07-19T14:04:25;2.45;;;1.70;;
15049;SDS011;7622;42.724;23.250;2022-07-19T14:06:52;2.13;;;1.48;;
15049;SDS011;7622;42.724;23.250;2022-07-19T14:09:19;11.32;;;1.80;;
15049;SDS011;7622;42.724;23.250;2022-07-19T14:11:47;2.05;;;1.60;;
15049;SDS011;7622;42.724;23.250;2022-07-19T14:14:14;2.13;;;1.40;;
15049;SDS011;7622;42.724;23.250;2022-07-19T14:16:41;2.05;;;1.73;;
15049;SDS011;7622;42.724;23.250;2022-07-19T14:19:08;2.40;;;1.70;;
15049;SDS011;7622;42.724;23.250;2022-07-19T14:21:35;1.23;;;1.23;;
15049;SDS011;7622;42.724;23.250;2022-07-19T14:24:02;1.60;;;1.50;;
15049;SDS011;7622;42.724;23.250;2022-07-19T14:26:29;1.48;;;1.38;;
15049;SDS011;7622;42.724;23.250;2022-07-19T14:29:00;14.15;;;2.30;;
15049;SDS011;7622;42.724;23.250;2022-07-19T14:31:29;1.90;;;1.60;;
15049;SDS011;7622;42.724;23.250;2022-07-19T14:33:56;3.80;;;1.52;;
15049;SDS011;7622;42.724;23.250;2022-07-19T14:36:23;1.67;;;1.58;;
15049;SDS011;7622;42.724;23.250;2022-07-19T14:38:49;1.80;;;1.70;;
15049;SDS011;7622;42.724;23.250;2022-07-19T14:41:16;1.38;;;1.23;;
15049;SDS011;7622;42.724;23.250;2022-07-19T14:43:43;1.67;;;1.58;;
15049;SDS011;7622;42.724;23.250;2022-07-19T14:46:11;1.40;;;1.30;;
15049;SDS011;7622;42.724;23.250;2022-07-19T14:48:38;3.28;;;1.90;;
15049;SDS011;7622;42.724;23.250;2022-07-19T14:51:05;3.40;;;1.70;;
15049;SDS011;7622;42.724;23.250;2022-07-19T14:53:32;1.88;;;1.40;;
15049;SDS011;7622;42.724;23.250;2022-07-19T14:55:59;1.40;;;1.30;;
15049;SDS011;7622;42.724;23.250;2022-07-19T14:58:25;2.00;;;1.67;;
15049;SDS011;7622;42.724;23.250;2022-07-19T15:00:52;3.35;;;1.73;;
15049;SDS011;7622;42.724;23.250;2022-07-19T15:03:20;1.73;;;1.40;;
15049;SDS011;7622;42.724;23.250;2022-07-19T15:05:47;2.15;;;1.40;;
15049;SDS011;7622;42.724;23.250;2022-07-19T15:08:14;2.67;;;1.60;;
15049;SDS011;7622;42.724;23.250;2022-07-19T15:10:41;1.52;;;1.45;;
15049;SDS011;7622;42.724;23.250;2022-07-19T15:13:08;1.70;;;1.60;;
15049;SDS011;7622;42.724;23.250;2022-07-19T15:15:35;3.75;;;1.70;;